sensor_id;sensor_type;location;lat;lon;timestamp;pressure;altitude;pressure_sealevel;temperature;humidity
73205;BME280;61413;-27.702;153.216;2022-07-29T00:01:02;102317.51;;;12.79;35.40
73205;BME280;61413;-27.702;153.216;2022-07-29T00:03:29;102306.90;;;13.03;35.28
73205;BME280;61413;-27.702;153.216;2022-07-29T00:05:57;102300.97;;;13.49;35.16
73205;BME280;61413;-27.702;153.216;2022-07-29T00:08:23;102298.57;;;13.55;35.03
73205;BME280;61413;-27.702;153.216;2022-07-29T00:10:51;102297.63;;;13.76;34.98
73205;BME280;61413;-27.702;153.216;2022-07-29T00:13:18;102298.25;;;13.82;34.88
73205;BME280;61413;-27.702;153.216;2022-07-29T00:15:45;102294.58;;;14.08;34.77
73205;BME280;61413;-27.702;153.216;2022-07-29T00:18:12;102292.09;;;14.16;34.61
73205;BME280;61413;-27.702;153.216;2022-07-29T00:20:40;102289.33;;;14.28;34.43
73205;BME280;61413;-27.702;153.216;2022-07-29T00:23:07;102288.68;;;14.77;34.22
73205;BME280;61413;-27.702;153.216;2022-07-29T00:25:39;102283.49;;;14.87;34.01
73205;BME280;61413;-27.702;153.216;2022-07-29T00:28:01;102281.52;;;14.91;33.77
73205;BME280;61413;-27.702;153.216;2022-07-29T00:30:28;102279.54;;;15.43;33.52
73205;BME280;61413;-27.702;153.216;2022-07-29T00:32:56;102277.05;;;15.37;33.31
73205;BME280;61413;-27.702;153.216;2022-07-29T00:38:21;102276.17;;;15.72;32.95
73205;BME280;61413;-27.702;153.216;2022-07-29T00:40:49;102271.48;;;16.19;32.55
73205;BME280;61413;-27.702;153.216;2022-07-29T00:43:16;102264.17;;;15.97;32.08
73205;BME280;61413;-27.702;153.216;2022-07-29T00:45:44;102262.13;;;16.46;31.68
73205;BME280;61413;-27.702;153.216;2022-07-29T00:48:11;102259.06;;;16.71;31.27
73205;BME280;61413;-27.702;153.216;2022-07-29T00:50:39;102255.20;;;17.09;30.88
73205;BME280;61413;-27.702;153.216;2022-07-29T00:53:07;102248.16;;;17.34;30.43
73205;BME280;61413;-27.702;153.216;2022-07-29T00:55:30;102244.06;;;17.27;30.06
73205;BME280;61413;-27.702;153.216;2022-07-29T00:57:58;102242.51;;;17.51;29.72
73205;BME280;61413;-27.702;153.216;2022-07-29T01:00:27;102241.08;;;17.43;29.26
73205;BME280;61413;-27.702;153.216;2022-07-29T01:02:50;102233.37;;;17.43;29.04
73205;BME280;61413;-27.702;153.216;2022-07-29T01:05:19;102228.63;;;17.66;28.82
73205;BME280;61413;-27.702;153.216;2022-07-29T01:07:43;102226.04;;;17.89;28.60
73205;BME280;61413;-27.702;153.216;2022-07-29T01:10:13;102221.15;;;17.97;28.47
73205;BME280;61413;-27.702;153.216;2022-07-29T01:12:39;102215.92;;;18.02;28.35
73205;BME280;61413;-27.702;153.216;2022-07-29T01:15:05;102215.11;;;18.12;28.18
73205;BME280;61413;-27.702;153.216;2022-07-29T01:17:36;102216.70;;;18.17;27.88
73205;BME280;61413;-27.702;153.216;2022-07-29T01:20:12;102217.20;;;18.24;27.60
73205;BME280;61413;-27.702;153.216;2022-07-29T01:22:28;102214.43;;;18.03;27.11
73205;BME280;61413;-27.702;153.216;2022-07-29T01:25:00;102213.94;;;18.09;26.74
73205;BME280;61413;-27.702;153.216;2022-07-29T01:27:30;102210.53;;;18.14;26.70
73205;BME280;61413;-27.702;153.216;2022-07-29T01:29:44;102208.38;;;18.20;26.46
73205;BME280;61413;-27.702;153.216;2022-07-29T01:32:11;102200.33;;;18.30;26.43
73205;BME280;61413;-27.702;153.216;2022-07-29T01:34:38;102195.38;;;18.85;26.34
73205;BME280;61413;-27.702;153.216;2022-07-29T01:37:08;102193.29;;;18.49;26.24
73205;BME280;61413;-27.702;153.216;2022-07-29T01:39:30;102187.77;;;18.61;26.14
73205;BME280;61413;-27.702;153.216;2022-07-29T01:41:59;102180.30;;;18.68;25.88
73205;BME280;61413;-27.702;153.216;2022-07-29T01:44:24;102172.53;;;18.86;25.62
73205;BME280;61413;-27.702;153.216;2022-07-29T01:46:52;102170.29;;;18.88;25.41
73205;BME280;61413;-27.702;153.216;2022-07-29T01:49:16;102167.63;;;18.96;25.15
73205;BME280;61413;-27.702;153.216;2022-07-29T01:51:45;102165.30;;;18.88;25.04
73205;BME280;61413;-27.702;153.216;2022-07-29T01:54:12;102165.37;;;19.10;24.98
73205;BME280;61413;-27.702;153.216;2022-07-29T01:56:33;102163.27;;;19.29;24.77
73205;BME280;61413;-27.702;153.216;2022-07-29T01:58:59;102153.91;;;19.26;24.65
73205;BME280;61413;-27.702;153.216;2022-07-29T02:02:51;102149.79;;;19.41;24.49
73205;BME280;61413;-27.702;153.216;2022-07-29T02:07:42;102138.67;;;19.07;24.29
73205;BME280;61413;-27.702;153.216;2022-07-29T02:10:11;102133.32;;;19.46;24.10
73205;BME280;61413;-27.702;153.216;2022-07-29T02:12:35;102123.34;;;19.56;23.90
73205;BME280;61413;-27.702;153.216;2022-07-29T02:15:03;102117.56;;;19.17;23.85
73205;BME280;61413;-27.702;153.216;2022-07-29T02:17:32;102112.67;;;19.43;23.81
73205;BME280;61413;-27.702;153.216;2022-07-29T02:22:18;102105.82;;;19.36;23.67
73205;BME280;61413;-27.702;153.216;2022-07-29T02:24:45;102098.69;;;19.34;23.49
73205;BME280;61413;-27.702;153.216;2022-07-29T02:27:14;102090.73;;;19.20;23.38
73205;BME280;61413;-27.702;153.216;2022-07-29T02:29:42;102085.34;;;19.34;23.25
73205;BME280;61413;-27.702;153.216;2022-07-29T02:32:10;102078.44;;;19.21;22.87
73205;BME280;61413;-27.702;153.216;2022-07-29T02:34:36;102074.27;;;19.36;22.74
73205;BME280;61413;-27.702;153.216;2022-07-29T02:37:01;102065.36;;;19.21;22.50
73205;BME280;61413;-27.702;153.216;2022-07-29T02:39:29;102063.69;;;19.19;22.52
73205;BME280;61413;-27.702;153.216;2022-07-29T02:42:01;102056.66;;;19.41;22.54
73205;BME280;61413;-27.702;153.216;2022-07-29T02:44:23;102052.42;;;19.33;22.58
73205;BME280;61413;-27.702;153.216;2022-07-29T02:46:54;102044.27;;;19.49;22.59
73205;BME280;61413;-27.702;153.216;2022-07-29T02:49:23;102038.57;;;19.60;22.45
73205;BME280;61413;-27.702;153.216;2022-07-29T02:51:45;102030.39;;;19.40;22.44
73205;BME280;61413;-27.702;153.216;2022-07-29T02:54:11;102027.08;;;19.71;22.14
73205;BME280;61413;-27.702;153.216;2022-07-29T02:56:36;102019.08;;;19.60;21.49
73205;BME280;61413;-27.702;153.216;2022-07-29T02:59:03;102013.21;;;19.57;21.32
73205;BME280;61413;-27.702;153.216;2022-07-29T03:01:29;102010.21;;;19.49;21.13
73205;BME280;61413;-27.702;153.216;2022-07-29T03:03:54;102004.00;;;19.50;21.11
73205;BME280;61413;-27.702;153.216;2022-07-29T03:06:23;101994.74;;;19.53;21.01
73205;BME280;61413;-27.702;153.216;2022-07-29T03:08:48;101988.59;;;19.59;20.66
73205;BME280;61413;-27.702;153.216;2022-07-29T03:11:16;101985.88;;;19.65;20.08
73205;BME280;61413;-27.702;153.216;2022-07-29T03:13:44;101982.06;;;19.79;19.61
73205;BME280;61413;-27.702;153.216;2022-07-29T03:16:11;101979.63;;;19.75;19.11
73205;BME280;61413;-27.702;153.216;2022-07-29T03:18:38;101980.32;;;19.59;18.80
73205;BME280;61413;-27.702;153.216;2022-07-29T03:21:06;101974.49;;;19.92;18.55
73205;BME280;61413;-27.702;153.216;2022-07-29T03:23:33;101969.70;;;19.73;18.24
73205;BME280;61413;-27.702;153.216;2022-07-29T03:26:00;101963.65;;;19.99;18.05
73205;BME280;61413;-27.702;153.216;2022-07-29T03:28:27;101961.07;;;19.66;17.96
73205;BME280;61413;-27.702;153.216;2022-07-29T03:30:55;101960.20;;;19.94;17.73
73205;BME280;61413;-27.702;153.216;2022-07-29T03:33:22;101953.25;;;20.00;17.49
73205;BME280;61413;-27.702;153.216;2022-07-29T03:35:50;101953.73;;;19.97;17.56
73205;BME280;61413;-27.702;153.216;2022-07-29T03:41:09;101952.96;;;19.98;17.33
73205;BME280;61413;-27.702;153.216;2022-07-29T03:43:31;101957.62;;;20.14;17.08
73205;BME280;61413;-27.702;153.216;2022-07-29T03:45:56;101955.91;;;20.30;17.08
73205;BME280;61413;-27.702;153.216;2022-07-29T03:48:24;101952.70;;;20.32;17.07
73205;BME280;61413;-27.702;153.216;2022-07-29T03:50:53;101949.35;;;19.97;17.04
73205;BME280;61413;-27.702;153.216;2022-07-29T03:53:20;101943.46;;;20.22;17.03
73205;BME280;61413;-27.702;153.216;2022-07-29T03:55:52;101944.53;;;20.00;16.94
73205;BME280;61413;-27.702;153.216;2022-07-29T03:58:14;101946.41;;;20.53;16.98
73205;BME280;61413;-27.702;153.216;2022-07-29T04:00:37;101946.62;;;20.36;16.94
73205;BME280;61413;-27.702;153.216;2022-07-29T04:03:05;101943.70;;;20.47;16.90
73205;BME280;61413;-27.702;153.216;2022-07-29T04:05:33;101943.19;;;20.21;16.86
73205;BME280;61413;-27.702;153.216;2022-07-29T04:08:00;101943.04;;;20.55;16.91
73205;BME280;61413;-27.702;153.216;2022-07-29T04:10:26;101945.67;;;20.40;16.97
73205;BME280;61413;-27.702;153.216;2022-07-29T04:12:53;101938.14;;;20.19;16.98
73205;BME280;61413;-27.702;153.216;2022-07-29T04:15:59;101936.36;;;20.35;16.95
73205;BME280;61413;-27.702;153.216;2022-07-29T04:18:27;101936.11;;;20.39;16.94
73205;BME280;61413;-27.702;153.216;2022-07-29T04:20:54;101933.73;;;20.79;16.90
73205;BME280;61413;-27.702;153.216;2022-07-29T04:23:21;101933.16;;;20.40;16.89
73205;BME280;61413;-27.702;153.216;2022-07-29T04:25:48;101927.29;;;20.42;16.94
73205;BME280;61413;-27.702;153.216;2022-07-29T04:28:15;101925.27;;;20.18;16.96
73205;BME280;61413;-27.702;153.216;2022-07-29T04:30:43;101921.02;;;20.34;17.01
73205;BME280;61413;-27.702;153.216;2022-07-29T04:33:09;101922.04;;;20.44;17.07
73205;BME280;61413;-27.702;153.216;2022-07-29T04:35:37;101918.86;;;20.69;17.04
73205;BME280;61413;-27.702;153.216;2022-07-29T04:40:29;101920.15;;;20.73;17.19
73205;BME280;61413;-27.702;153.216;2022-07-29T04:42:56;101920.09;;;20.53;17.15
73205;BME280;61413;-27.702;153.216;2022-07-29T04:45:24;101916.46;;;20.51;17.12
73205;BME280;61413;-27.702;153.216;2022-07-29T04:47:50;101916.21;;;20.77;17.06
73205;BME280;61413;-27.702;153.216;2022-07-29T04:52:53;101918.23;;;20.45;17.16
73205;BME280;61413;-27.702;153.216;2022-07-29T04:55:20;101912.90;;;20.48;17.06
73205;BME280;61413;-27.702;153.216;2022-07-29T04:57:47;101911.80;;;20.59;16.90
73205;BME280;61413;-27.702;153.216;2022-07-29T05:00:15;101908.16;;;20.87;16.74
73205;BME280;61413;-27.702;153.216;2022-07-29T05:02:42;101909.71;;;20.76;16.57
73205;BME280;61413;-27.702;153.216;2022-07-29T05:05:09;101906.38;;;20.99;16.48
73205;BME280;61413;-27.702;153.216;2022-07-29T05:07:36;101906.00;;;20.90;16.43
73205;BME280;61413;-27.702;153.216;2022-07-29T05:10:03;101907.49;;;20.83;16.15
73205;BME280;61413;-27.702;153.216;2022-07-29T05:12:31;101906.84;;;20.84;16.01
73205;BME280;61413;-27.702;153.216;2022-07-29T05:14:57;101907.32;;;20.85;15.94
73205;BME280;61413;-27.702;153.216;2022-07-29T05:17:24;101906.58;;;20.62;15.82
73205;BME280;61413;-27.702;153.216;2022-07-29T05:19:51;101907.40;;;20.70;15.74
73205;BME280;61413;-27.702;153.216;2022-07-29T05:22:18;101907.80;;;20.69;15.73
73205;BME280;61413;-27.702;153.216;2022-07-29T05:24:46;101906.51;;;20.82;15.69
73205;BME280;61413;-27.702;153.216;2022-07-29T05:27:13;101903.16;;;20.70;15.62
73205;BME280;61413;-27.702;153.216;2022-07-29T05:29:40;101899.57;;;20.90;15.39
73205;BME280;61413;-27.702;153.216;2022-07-29T05:32:07;101899.09;;;20.80;15.38
73205;BME280;61413;-27.702;153.216;2022-07-29T05:34:34;101899.31;;;20.81;15.33
73205;BME280;61413;-27.702;153.216;2022-07-29T05:39:29;101894.94;;;18.37;15.33
73205;BME280;61413;-27.702;153.216;2022-07-29T05:41:56;101896.67;;;20.60;15.17
73205;BME280;61413;-27.702;153.216;2022-07-29T05:44:24;101897.86;;;20.77;15.21
73205;BME280;61413;-27.702;153.216;2022-07-29T05:46:51;101892.75;;;20.37;15.34
73205;BME280;61413;-27.702;153.216;2022-07-29T05:49:17;101890.44;;;20.79;15.44
73205;BME280;61413;-27.702;153.216;2022-07-29T05:54:00;101889.59;;;20.55;15.61
73205;BME280;61413;-27.702;153.216;2022-07-29T05:57:26;101889.44;;;20.36;15.45
73205;BME280;61413;-27.702;153.216;2022-07-29T05:59:53;101887.42;;;20.55;15.47
73205;BME280;61413;-27.702;153.216;2022-07-29T06:02:21;101888.92;;;20.39;15.42
73205;BME280;61413;-27.702;153.216;2022-07-29T06:04:47;101887.73;;;20.35;15.43
73205;BME280;61413;-27.702;153.216;2022-07-29T06:07:14;101888.14;;;20.19;15.45
73205;BME280;61413;-27.702;153.216;2022-07-29T06:09:41;101889.86;;;20.14;15.52
73205;BME280;61413;-27.702;153.216;2022-07-29T06:12:10;101889.75;;;20.32;15.52
73205;BME280;61413;-27.702;153.216;2022-07-29T06:14:37;101887.45;;;20.26;15.57
73205;BME280;61413;-27.702;153.216;2022-07-29T06:17:03;101885.09;;;20.11;15.63
73205;BME280;61413;-27.702;153.216;2022-07-29T06:19:30;101884.30;;;20.43;15.64
73205;BME280;61413;-27.702;153.216;2022-07-29T06:21:58;101889.60;;;20.14;15.65
73205;BME280;61413;-27.702;153.216;2022-07-29T06:24:25;101888.38;;;19.95;15.69
73205;BME280;61413;-27.702;153.216;2022-07-29T06:26:52;101890.23;;;19.86;15.75
73205;BME280;61413;-27.702;153.216;2022-07-29T06:29:19;101888.53;;;19.97;15.83
73205;BME280;61413;-27.702;153.216;2022-07-29T06:31:46;101893.75;;;19.55;15.94
73205;BME280;61413;-27.702;153.216;2022-07-29T06:34:13;101896.43;;;19.86;15.98
73205;BME280;61413;-27.702;153.216;2022-07-29T06:36:40;101898.63;;;19.85;16.02
73205;BME280;61413;-27.702;153.216;2022-07-29T06:39:08;101901.05;;;19.59;16.03
73205;BME280;61413;-27.702;153.216;2022-07-29T06:41:35;101903.44;;;19.69;16.09
73205;BME280;61413;-27.702;153.216;2022-07-29T06:44:02;101906.20;;;19.41;16.16
73205;BME280;61413;-27.702;153.216;2022-07-29T06:49:55;101912.22;;;19.36;16.41
73205;BME280;61413;-27.702;153.216;2022-07-29T06:52:23;101916.59;;;19.23;16.49
73205;BME280;61413;-27.702;153.216;2022-07-29T06:54:49;101920.08;;;18.94;16.60
73205;BME280;61413;-27.702;153.216;2022-07-29T06:57:17;101922.32;;;19.11;16.74
73205;BME280;61413;-27.702;153.216;2022-07-29T06:59:44;101928.38;;;18.71;16.99
73205;BME280;61413;-27.702;153.216;2022-07-29T07:02:11;101934.68;;;18.77;17.25
73205;BME280;61413;-27.702;153.216;2022-07-29T07:04:37;101937.20;;;18.30;17.58
73205;BME280;61413;-27.702;153.216;2022-07-29T07:07:05;101940.65;;;17.93;17.91
73205;BME280;61413;-27.702;153.216;2022-07-29T07:09:31;101940.06;;;17.87;18.21
73205;BME280;61413;-27.702;153.216;2022-07-29T07:14:07;101940.88;;;17.63;18.75
73205;BME280;61413;-27.702;153.216;2022-07-29T07:16:34;101942.37;;;17.37;18.94
73205;BME280;61413;-27.702;153.216;2022-07-29T07:19:01;101942.68;;;17.03;19.17
73205;BME280;61413;-27.702;153.216;2022-07-29T07:21:27;101942.36;;;16.80;19.35
73205;BME280;61413;-27.702;153.216;2022-07-29T07:23:54;101944.90;;;16.78;19.52
73205;BME280;61413;-27.702;153.216;2022-07-29T07:26:21;101945.96;;;16.54;19.71
73205;BME280;61413;-27.702;153.216;2022-07-29T07:28:48;101948.91;;;16.88;19.87
73205;BME280;61413;-27.702;153.216;2022-07-29T07:31:16;101952.45;;;16.21;20.01
73205;BME280;61413;-27.702;153.216;2022-07-29T07:33:43;101957.18;;;15.98;20.23
73205;BME280;61413;-27.702;153.216;2022-07-29T07:36:10;101960.07;;;16.26;20.45
73205;BME280;61413;-27.702;153.216;2022-07-29T07:38:37;101961.49;;;16.21;20.73
73205;BME280;61413;-27.702;153.216;2022-07-29T07:41:04;101962.80;;;15.85;21.04
73205;BME280;61413;-27.702;153.216;2022-07-29T07:43:41;101967.13;;;15.65;21.25
73205;BME280;61413;-27.702;153.216;2022-07-29T07:46:00;101966.42;;;15.71;21.51
73205;BME280;61413;-27.702;153.216;2022-07-29T07:48:27;101971.99;;;15.41;21.65
73205;BME280;61413;-27.702;153.216;2022-07-29T07:50:54;101974.42;;;15.56;21.87
73205;BME280;61413;-27.702;153.216;2022-07-29T07:53:21;101975.70;;;15.62;22.01
73205;BME280;61413;-27.702;153.216;2022-07-29T07:55:48;101975.84;;;15.23;22.17
73205;BME280;61413;-27.702;153.216;2022-07-29T07:58:15;101976.27;;;14.89;22.32
73205;BME280;61413;-27.702;153.216;2022-07-29T08:00:42;101979.40;;;15.18;22.45
73205;BME280;61413;-27.702;153.216;2022-07-29T08:03:09;101978.79;;;15.09;22.50
73205;BME280;61413;-27.702;153.216;2022-07-29T08:05:36;101980.20;;;15.01;22.57
73205;BME280;61413;-27.702;153.216;2022-07-29T08:08:04;101983.77;;;15.10;22.71
73205;BME280;61413;-27.702;153.216;2022-07-29T08:10:31;101987.90;;;14.75;22.84
73205;BME280;61413;-27.702;153.216;2022-07-29T08:12:58;101992.27;;;15.14;23.01
73205;BME280;61413;-27.702;153.216;2022-07-29T08:15:24;101997.10;;;14.66;23.17
73205;BME280;61413;-27.702;153.216;2022-07-29T08:17:51;101998.96;;;14.36;23.44
73205;BME280;61413;-27.702;153.216;2022-07-29T08:20:18;102003.50;;;15.05;23.80
73205;BME280;61413;-27.702;153.216;2022-07-29T08:22:45;102003.90;;;14.42;24.07
73205;BME280;61413;-27.702;153.216;2022-07-29T08:25:12;102007.58;;;14.64;24.32
73205;BME280;61413;-27.702;153.216;2022-07-29T08:27:40;102015.73;;;14.54;24.44
73205;BME280;61413;-27.702;153.216;2022-07-29T08:30:28;102023.68;;;14.40;24.56
73205;BME280;61413;-27.702;153.216;2022-07-29T08:32:35;102032.01;;;14.38;24.70
73205;BME280;61413;-27.702;153.216;2022-07-29T08:35:02;102034.06;;;14.29;24.81
73205;BME280;61413;-27.702;153.216;2022-07-29T08:37:29;102038.26;;;14.15;24.84
73205;BME280;61413;-27.702;153.216;2022-07-29T08:39:56;102042.06;;;13.95;24.95
73205;BME280;61413;-27.702;153.216;2022-07-29T08:42:23;102042.01;;;13.95;25.09
73205;BME280;61413;-27.702;153.216;2022-07-29T08:44:50;102047.92;;;13.73;25.22
73205;BME280;61413;-27.702;153.216;2022-07-29T08:47:18;102049.70;;;13.28;25.96
73205;BME280;61413;-27.702;153.216;2022-07-29T08:49:45;102051.57;;;12.81;26.78
73205;BME280;61413;-27.702;153.216;2022-07-29T08:52:13;102049.33;;;12.88;27.07
73205;BME280;61413;-27.702;153.216;2022-07-29T08:54:43;102054.22;;;12.79;27.23
73205;BME280;61413;-27.702;153.216;2022-07-29T08:57:06;102058.78;;;12.50;27.92
73205;BME280;61413;-27.702;153.216;2022-07-29T08:59:35;102063.45;;;12.57;28.38
73205;BME280;61413;-27.702;153.216;2022-07-29T09:02:01;102066.70;;;12.21;28.77
73205;BME280;61413;-27.702;153.216;2022-07-29T09:04:29;102071.95;;;12.22;29.07
73205;BME280;61413;-27.702;153.216;2022-07-29T09:08:52;102076.83;;;11.91;29.73
73205;BME280;61413;-27.702;153.216;2022-07-29T09:11:19;102081.60;;;12.15;29.91
73205;BME280;61413;-27.702;153.216;2022-07-29T09:13:47;102085.88;;;12.14;29.68
73205;BME280;61413;-27.702;153.216;2022-07-29T09:18:35;102091.68;;;11.49;30.29
73205;BME280;61413;-27.702;153.216;2022-07-29T09:20:53;102099.90;;;11.34;30.53
73205;BME280;61413;-27.702;153.216;2022-07-29T09:23:12;102111.79;;;11.53;30.72
73205;BME280;61413;-27.702;153.216;2022-07-29T09:25:41;102114.13;;;11.33;30.89
73205;BME280;61413;-27.702;153.216;2022-07-29T09:28:09;102114.99;;;11.45;31.09
73205;BME280;61413;-27.702;153.216;2022-07-29T09:30:33;102117.15;;;11.99;30.99
73205;BME280;61413;-27.702;153.216;2022-07-29T09:33:02;102118.24;;;11.71;30.76
73205;BME280;61413;-27.702;153.216;2022-07-29T09:36:16;102117.97;;;11.76;30.85
73205;BME280;61413;-27.702;153.216;2022-07-29T09:38:44;102123.43;;;12.07;30.89
73205;BME280;61413;-27.702;153.216;2022-07-29T09:41:11;102120.17;;;11.69;30.99
73205;BME280;61413;-27.702;153.216;2022-07-29T09:43:41;102123.83;;;11.96;30.75
73205;BME280;61413;-27.702;153.216;2022-07-29T09:46:12;102122.86;;;11.74;30.72
73205;BME280;61413;-27.702;153.216;2022-07-29T09:48:31;102123.59;;;11.68;30.96
73205;BME280;61413;-27.702;153.216;2022-07-29T09:53:31;102132.57;;;11.54;31.10
73205;BME280;61413;-27.702;153.216;2022-07-29T09:55:51;102134.49;;;11.71;31.04
73205;BME280;61413;-27.702;153.216;2022-07-29T09:58:19;102130.44;;;11.90;30.82
73205;BME280;61413;-27.702;153.216;2022-07-29T10:02:14;102135.87;;;11.90;30.69
73205;BME280;61413;-27.702;153.216;2022-07-29T10:04:42;102136.45;;;12.28;30.41
73205;BME280;61413;-27.702;153.216;2022-07-29T10:09:38;102140.59;;;12.40;30.20
73205;BME280;61413;-27.702;153.216;2022-07-29T10:14:59;102142.09;;;12.44;30.16
73205;BME280;61413;-27.702;153.216;2022-07-29T10:17:24;102147.03;;;12.51;30.01
73205;BME280;61413;-27.702;153.216;2022-07-29T10:19:52;102150.40;;;12.73;29.94
73205;BME280;61413;-27.702;153.216;2022-07-29T10:22:19;102153.15;;;12.77;29.84
73205;BME280;61413;-27.702;153.216;2022-07-29T10:24:46;102153.37;;;12.61;29.76
73205;BME280;61413;-27.702;153.216;2022-07-29T10:27:14;102160.92;;;13.02;29.78
73205;BME280;61413;-27.702;153.216;2022-07-29T10:29:41;102162.77;;;13.01;29.90
73205;BME280;61413;-27.702;153.216;2022-07-29T10:32:16;102168.20;;;13.34;30.20
73205;BME280;61413;-27.702;153.216;2022-07-29T10:35:54;102166.74;;;13.65;30.40
73205;BME280;61413;-27.702;153.216;2022-07-29T10:38:34;102167.51;;;13.78;30.51
73205;BME280;61413;-27.702;153.216;2022-07-29T10:40:43;102168.15;;;13.88;30.80
73205;BME280;61413;-27.702;153.216;2022-07-29T10:44:57;102173.75;;;13.86;31.07
73205;BME280;61413;-27.702;153.216;2022-07-29T10:47:25;102178.38;;;13.90;31.14
73205;BME280;61413;-27.702;153.216;2022-07-29T10:50:01;102177.94;;;14.07;31.28
73205;BME280;61413;-27.702;153.216;2022-07-29T10:52:20;102182.91;;;13.53;31.39
73205;BME280;61413;-27.702;153.216;2022-07-29T10:54:49;102186.78;;;14.00;31.55
73205;BME280;61413;-27.702;153.216;2022-07-29T10:57:18;102191.07;;;14.01;31.59
73205;BME280;61413;-27.702;153.216;2022-07-29T10:59:37;102197.25;;;13.75;31.63
73205;BME280;61413;-27.702;153.216;2022-07-29T11:02:43;102198.87;;;14.07;31.63
73205;BME280;61413;-27.702;153.216;2022-07-29T11:05:05;102200.12;;;14.24;31.73
73205;BME280;61413;-27.702;153.216;2022-07-29T11:07:16;102205.17;;;14.12;31.81
73205;BME280;61413;-27.702;153.216;2022-07-29T11:09:27;102204.62;;;14.02;31.82
73205;BME280;61413;-27.702;153.216;2022-07-29T11:11:54;102208.50;;;14.30;31.81
73205;BME280;61413;-27.702;153.216;2022-07-29T11:14:56;102207.96;;;14.09;31.82
73205;BME280;61413;-27.702;153.216;2022-07-29T11:17:07;102215.07;;;14.45;31.82
73205;BME280;61413;-27.702;153.216;2022-07-29T11:19:24;102219.22;;;14.21;31.83
73205;BME280;61413;-27.702;153.216;2022-07-29T11:21:44;102220.69;;;14.18;31.83
73205;BME280;61413;-27.702;153.216;2022-07-29T11:24:15;102218.02;;;14.64;31.69
73205;BME280;61413;-27.702;153.216;2022-07-29T11:26:39;102217.42;;;13.95;31.67
73205;BME280;61413;-27.702;153.216;2022-07-29T11:29:18;102222.13;;;14.25;31.66
73205;BME280;61413;-27.702;153.216;2022-07-29T11:31:39;102228.79;;;14.24;31.61
73205;BME280;61413;-27.702;153.216;2022-07-29T11:34:14;102225.07;;;14.41;31.48
73205;BME280;61413;-27.702;153.216;2022-07-29T11:36:26;102227.68;;;14.37;31.38
73205;BME280;61413;-27.702;153.216;2022-07-29T11:38:53;102232.45;;;14.31;31.26
73205;BME280;61413;-27.702;153.216;2022-07-29T11:41:28;102237.57;;;14.46;31.27
73205;BME280;61413;-27.702;153.216;2022-07-29T11:43:49;102237.69;;;14.53;31.16
73205;BME280;61413;-27.702;153.216;2022-07-29T11:46:12;102240.21;;;14.49;31.12
73205;BME280;61413;-27.702;153.216;2022-07-29T11:48:43;102239.32;;;14.42;31.02
73205;BME280;61413;-27.702;153.216;2022-07-29T11:51:10;102236.13;;;14.18;30.93
73205;BME280;61413;-27.702;153.216;2022-07-29T11:53:33;102238.30;;;14.41;30.83
73205;BME280;61413;-27.702;153.216;2022-07-29T11:56:00;102246.89;;;14.67;30.75
73205;BME280;61413;-27.702;153.216;2022-07-29T11:58:27;102246.02;;;14.38;30.68
73205;BME280;61413;-27.702;153.216;2022-07-29T12:00:56;102244.09;;;14.31;30.57
73205;BME280;61413;-27.702;153.216;2022-07-29T12:03:27;102248.04;;;14.44;30.49
73205;BME280;61413;-27.702;153.216;2022-07-29T12:05:49;102247.19;;;14.57;30.45
73205;BME280;61413;-27.702;153.216;2022-07-29T12:08:59;102250.90;;;14.37;30.50
73205;BME280;61413;-27.702;153.216;2022-07-29T12:11:26;102253.45;;;14.49;30.39
73205;BME280;61413;-27.702;153.216;2022-07-29T12:13:54;102254.72;;;14.60;30.35
73205;BME280;61413;-27.702;153.216;2022-07-29T12:16:22;102253.16;;;13.98;30.40
73205;BME280;61413;-27.702;153.216;2022-07-29T12:18:57;102251.68;;;14.49;30.25
73205;BME280;61413;-27.702;153.216;2022-07-29T12:21:15;102249.01;;;14.48;30.26
73205;BME280;61413;-27.702;153.216;2022-07-29T12:23:54;102250.70;;;14.31;30.32
73205;BME280;61413;-27.702;153.216;2022-07-29T12:26:09;102254.50;;;14.16;30.34
73205;BME280;61413;-27.702;153.216;2022-07-29T12:28:39;102249.37;;;14.15;30.32
73205;BME280;61413;-27.702;153.216;2022-07-29T12:31:02;102248.26;;;14.59;30.29
73205;BME280;61413;-27.702;153.216;2022-07-29T12:33:31;102248.05;;;14.11;30.28
73205;BME280;61413;-27.702;153.216;2022-07-29T12:36:00;102246.12;;;14.32;30.28
73205;BME280;61413;-27.702;153.216;2022-07-29T12:38:23;102247.93;;;14.24;30.31
73205;BME280;61413;-27.702;153.216;2022-07-29T12:40:51;102248.62;;;13.98;30.43
73205;BME280;61413;-27.702;153.216;2022-07-29T12:43:20;102248.99;;;13.87;30.37
73205;BME280;61413;-27.702;153.216;2022-07-29T12:45:45;102249.76;;;14.02;30.30
73205;BME280;61413;-27.702;153.216;2022-07-29T12:48:12;102249.07;;;14.21;30.31
73205;BME280;61413;-27.702;153.216;2022-07-29T12:50:55;102247.97;;;14.15;30.22
73205;BME280;61413;-27.702;153.216;2022-07-29T12:53:14;102250.02;;;13.85;30.26
73205;BME280;61413;-27.702;153.216;2022-07-29T12:55:42;102254.12;;;14.10;30.22
73205;BME280;61413;-27.702;153.216;2022-07-29T12:58:01;102255.54;;;14.06;30.25
73205;BME280;61413;-27.702;153.216;2022-07-29T13:00:28;102251.37;;;14.29;30.11
73205;BME280;61413;-27.702;153.216;2022-07-29T13:02:58;102250.81;;;14.05;30.08
73205;BME280;61413;-27.702;153.216;2022-07-29T13:05:22;102250.14;;;14.24;30.02